sensor_id;sensor_type;location;lat;lon;timestamp;P1;durP1;ratioP1;P2;durP2;ratioP2
609;SDS011;292;48.800;9.216;2022-11-09T00:01:24;16.87;;;7.30;;
609;SDS011;292;48.800;9.216;2022-11-09T00:03:54;19.20;;;6.90;;
609;SDS011;292;48.800;9.216;2022-11-09T00:06:22;12.47;;;6.50;;
609;SDS011;292;48.800;9.216;2022-11-09T00:08:50;16.80;;;6.97;;
609;SDS011;292;48.800;9.216;2022-11-09T00:11:17;23.20;;;11.87;;
609;SDS011;292;48.800;9.216;2022-11-09T00:13:45;22.90;;;9.40;;
609;SDS011;292;48.800;9.216;2022-11-09T00:16:13;19.07;;;8.10;;
609;SDS011;292;48.800;9.216;2022-11-09T00:18:41;15.70;;;7.53;;
609;SDS011;292;48.800;9.216;2022-11-09T00:21:14;15.70;;;6.87;;
609;SDS011;292;48.800;9.216;2022-11-09T00:23:43;21.10;;;7.77;;
609;SDS011;292;48.800;9.216;2022-11-09T00:26:11;16.73;;;7.80;;
609;SDS011;292;48.800;9.216;2022-11-09T00:28:39;17.90;;;7.17;;
609;SDS011;292;48.800;9.216;2022-11-09T00:31:07;20.93;;;8.87;;
609;SDS011;292;48.800;9.216;2022-11-09T00:33:36;18.90;;;7.23;;
609;SDS011;292;48.800;9.216;2022-11-09T00:36:04;15.97;;;7.70;;
609;SDS011;292;48.800;9.216;2022-11-09T00:38:34;13.67;;;6.57;;
609;SDS011;292;48.800;9.216;2022-11-09T00:41:02;13.47;;;6.57;;
609;SDS011;292;48.800;9.216;2022-11-09T00:43:30;21.10;;;8.23;;
609;SDS011;292;48.800;9.216;2022-11-09T00:45:56;18.37;;;7.20;;
609;SDS011;292;48.800;9.216;2022-11-09T00:48:23;14.20;;;7.10;;
609;SDS011;292;48.800;9.216;2022-11-09T00:50:51;13.97;;;6.70;;
609;SDS011;292;48.800;9.216;2022-11-09T00:53:18;20.70;;;7.27;;
609;SDS011;292;48.800;9.216;2022-11-09T00:55:57;16.90;;;7.50;;
609;SDS011;292;48.800;9.216;2022-11-09T00:58:25;22.63;;;8.00;;
609;SDS011;292;48.800;9.216;2022-11-09T01:00:53;15.10;;;7.20;;
609;SDS011;292;48.800;9.216;2022-11-09T01:03:21;14.03;;;6.60;;
609;SDS011;292;48.800;9.216;2022-11-09T01:05:49;21.77;;;7.27;;
609;SDS011;292;48.800;9.216;2022-11-09T01:08:17;16.33;;;6.90;;
609;SDS011;292;48.800;9.216;2022-11-09T01:10:45;16.43;;;7.43;;
609;SDS011;292;48.800;9.216;2022-11-09T01:13:16;14.83;;;6.73;;
609;SDS011;292;48.800;9.216;2022-11-09T01:15:45;14.80;;;6.37;;
609;SDS011;292;48.800;9.216;2022-11-09T01:18:13;23.03;;;8.30;;
609;SDS011;292;48.800;9.216;2022-11-09T01:20:42;15.00;;;7.30;;
609;SDS011;292;48.800;9.216;2022-11-09T01:23:11;17.93;;;7.20;;
609;SDS011;292;48.800;9.216;2022-11-09T01:25:39;20.47;;;7.50;;
609;SDS011;292;48.800;9.216;2022-11-09T01:28:07;15.37;;;6.90;;
609;SDS011;292;48.800;9.216;2022-11-09T01:30:36;15.80;;;6.83;;
609;SDS011;292;48.800;9.216;2022-11-09T01:33:05;15.27;;;6.90;;
609;SDS011;292;48.800;9.216;2022-11-09T01:35:33;17.17;;;7.30;;
609;SDS011;292;48.800;9.216;2022-11-09T01:38:02;14.37;;;6.40;;
609;SDS011;292;48.800;9.216;2022-11-09T01:40:31;16.00;;;6.83;;
609;SDS011;292;48.800;9.216;2022-11-09T01:43:04;16.47;;;7.50;;
609;SDS011;292;48.800;9.216;2022-11-09T01:45:32;22.43;;;7.43;;
609;SDS011;292;48.800;9.216;2022-11-09T01:48:02;13.93;;;7.20;;
609;SDS011;292;48.800;9.216;2022-11-09T01:50:37;14.90;;;6.33;;
609;SDS011;292;48.800;9.216;2022-11-09T01:53:15;12.23;;;6.43;;
609;SDS011;292;48.800;9.216;2022-11-09T01:55:45;18.93;;;7.73;;
609;SDS011;292;48.800;9.216;2022-11-09T01:58:19;17.53;;;7.30;;
609;SDS011;292;48.800;9.216;2022-11-09T02:00:48;20.23;;;8.50;;
609;SDS011;292;48.800;9.216;2022-11-09T02:03:19;15.73;;;7.83;;
609;SDS011;292;48.800;9.216;2022-11-09T02:05:49;16.10;;;7.83;;
609;SDS011;292;48.800;9.216;2022-11-09T02:08:18;18.47;;;8.13;;
609;SDS011;292;48.800;9.216;2022-11-09T02:10:50;18.10;;;8.23;;
609;SDS011;292;48.800;9.216;2022-11-09T02:13:23;15.73;;;7.30;;
609;SDS011;292;48.800;9.216;2022-11-09T02:15:52;19.63;;;8.10;;
609;SDS011;292;48.800;9.216;2022-11-09T02:18:20;17.60;;;8.00;;
609;SDS011;292;48.800;9.216;2022-11-09T02:20:50;24.83;;;8.97;;
609;SDS011;292;48.800;9.216;2022-11-09T02:23:18;22.37;;;8.70;;
609;SDS011;292;48.800;9.216;2022-11-09T02:25:47;14.10;;;7.30;;
609;SDS011;292;48.800;9.216;2022-11-09T02:28:16;16.73;;;7.60;;
609;SDS011;292;48.800;9.216;2022-11-09T02:30:44;18.57;;;7.70;;
609;SDS011;292;48.800;9.216;2022-11-09T02:33:14;18.87;;;8.50;;
609;SDS011;292;48.800;9.216;2022-11-09T02:35:41;16.40;;;8.20;;
609;SDS011;292;48.800;9.216;2022-11-09T02:38:11;15.80;;;7.23;;
609;SDS011;292;48.800;9.216;2022-11-09T02:40:39;15.50;;;7.00;;
609;SDS011;292;48.800;9.216;2022-11-09T02:43:09;14.43;;;7.73;;
609;SDS011;292;48.800;9.216;2022-11-09T02:45:37;12.17;;;6.80;;
609;SDS011;292;48.800;9.216;2022-11-09T02:48:04;11.63;;;6.50;;
609;SDS011;292;48.800;9.216;2022-11-09T02:50:31;11.77;;;6.33;;
609;SDS011;292;48.800;9.216;2022-11-09T02:53:00;13.23;;;5.13;;
609;SDS011;292;48.800;9.216;2022-11-09T02:55:28;10.83;;;5.83;;
609;SDS011;292;48.800;9.216;2022-11-09T02:57:56;9.60;;;5.70;;
609;SDS011;292;48.800;9.216;2022-11-09T03:00:23;8.40;;;5.23;;
609;SDS011;292;48.800;9.216;2022-11-09T03:02:50;13.27;;;6.10;;
609;SDS011;292;48.800;9.216;2022-11-09T03:05:17;12.13;;;5.70;;
609;SDS011;292;48.800;9.216;2022-11-09T03:07:44;10.40;;;5.83;;
609;SDS011;292;48.800;9.216;2022-11-09T03:10:11;11.03;;;6.00;;
609;SDS011;292;48.800;9.216;2022-11-09T03:12:39;12.97;;;6.40;;
609;SDS011;292;48.800;9.216;2022-11-09T03:15:07;15.87;;;6.90;;
609;SDS011;292;48.800;9.216;2022-11-09T03:17:35;12.47;;;6.33;;
609;SDS011;292;48.800;9.216;2022-11-09T03:20:02;9.40;;;5.83;;
609;SDS011;292;48.800;9.216;2022-11-09T03:22:30;14.87;;;6.47;;
609;SDS011;292;48.800;9.216;2022-11-09T03:24:57;13.07;;;6.00;;
609;SDS011;292;48.800;9.216;2022-11-09T03:27:24;19.67;;;6.80;;
609;SDS011;292;48.800;9.216;2022-11-09T03:29:52;14.07;;;6.10;;
609;SDS011;292;48.800;9.216;2022-11-09T03:32:19;15.73;;;6.93;;
609;SDS011;292;48.800;9.216;2022-11-09T03:34:46;14.83;;;6.90;;
609;SDS011;292;48.800;9.216;2022-11-09T03:37:15;14.93;;;6.50;;
609;SDS011;292;48.800;9.216;2022-11-09T03:39:42;20.87;;;6.70;;
609;SDS011;292;48.800;9.216;2022-11-09T03:42:09;15.63;;;6.93;;
609;SDS011;292;48.800;9.216;2022-11-09T03:44:36;16.50;;;7.20;;
609;SDS011;292;48.800;9.216;2022-11-09T03:47:04;19.33;;;7.60;;
609;SDS011;292;48.800;9.216;2022-11-09T03:49:31;19.90;;;8.30;;
609;SDS011;292;48.800;9.216;2022-11-09T03:51:59;16.97;;;7.20;;
609;SDS011;292;48.800;9.216;2022-11-09T03:54:25;15.07;;;6.07;;
609;SDS011;292;48.800;9.216;2022-11-09T03:56:52;15.40;;;7.60;;
609;SDS011;292;48.800;9.216;2022-11-09T03:59:19;13.47;;;6.23;;
609;SDS011;292;48.800;9.216;2022-11-09T04:01:46;13.87;;;7.00;;
609;SDS011;292;48.800;9.216;2022-11-09T04:04:15;11.87;;;6.73;;
609;SDS011;292;48.800;9.216;2022-11-09T04:06:42;20.60;;;8.50;;
609;SDS011;292;48.800;9.216;2022-11-09T04:09:09;16.10;;;7.43;;
609;SDS011;292;48.800;9.216;2022-11-09T04:11:36;17.10;;;7.90;;
609;SDS011;292;48.800;9.216;2022-11-09T04:14:03;15.27;;;7.20;;
609;SDS011;292;48.800;9.216;2022-11-09T04:16:31;18.30;;;7.97;;
609;SDS011;292;48.800;9.216;2022-11-09T04:18:58;20.57;;;7.70;;
609;SDS011;292;48.800;9.216;2022-11-09T04:21:26;18.03;;;8.30;;
609;SDS011;292;48.800;9.216;2022-11-09T04:23:53;23.03;;;8.70;;
609;SDS011;292;48.800;9.216;2022-11-09T04:26:20;20.23;;;7.87;;
609;SDS011;292;48.800;9.216;2022-11-09T04:28:47;20.70;;;9.43;;
609;SDS011;292;48.800;9.216;2022-11-09T04:31:14;22.90;;;9.13;;
609;SDS011;292;48.800;9.216;2022-11-09T04:33:41;14.63;;;8.10;;
609;SDS011;292;48.800;9.216;2022-11-09T04:36:08;21.10;;;8.60;;
609;SDS011;292;48.800;9.216;2022-11-09T04:38:37;20.77;;;8.50;;
609;SDS011;292;48.800;9.216;2022-11-09T04:41:04;16.53;;;8.03;;
609;SDS011;292;48.800;9.216;2022-11-09T04:43:32;19.97;;;8.60;;
609;SDS011;292;48.800;9.216;2022-11-09T04:46:00;19.50;;;8.37;;
609;SDS011;292;48.800;9.216;2022-11-09T04:48:28;24.23;;;8.30;;
609;SDS011;292;48.800;9.216;2022-11-09T04:50:59;14.13;;;7.57;;
609;SDS011;292;48.800;9.216;2022-11-09T04:53:26;16.57;;;7.77;;
609;SDS011;292;48.800;9.216;2022-11-09T04:55:55;17.70;;;7.10;;
609;SDS011;292;48.800;9.216;2022-11-09T04:58:22;17.83;;;7.27;;
609;SDS011;292;48.800;9.216;2022-11-09T05:00:50;21.90;;;6.77;;
609;SDS011;292;48.800;9.216;2022-11-09T05:03:17;15.47;;;6.80;;
609;SDS011;292;48.800;9.216;2022-11-09T05:05:44;13.40;;;6.30;;
609;SDS011;292;48.800;9.216;2022-11-09T05:08:11;12.23;;;6.93;;
609;SDS011;292;48.800;9.216;2022-11-09T05:10:38;15.70;;;8.63;;
609;SDS011;292;48.800;9.216;2022-11-09T05:13:08;19.50;;;7.97;;
609;SDS011;292;48.800;9.216;2022-11-09T05:15:36;15.50;;;7.63;;
609;SDS011;292;48.800;9.216;2022-11-09T05:18:04;15.90;;;7.63;;
609;SDS011;292;48.800;9.216;2022-11-09T05:20:32;18.30;;;7.83;;
609;SDS011;292;48.800;9.216;2022-11-09T05:22:59;15.50;;;8.33;;
609;SDS011;292;48.800;9.216;2022-11-09T05:25:43;20.10;;;8.03;;
609;SDS011;292;48.800;9.216;2022-11-09T05:28:12;15.30;;;7.30;;
609;SDS011;292;48.800;9.216;2022-11-09T05:30:39;10.87;;;5.90;;
609;SDS011;292;48.800;9.216;2022-11-09T05:33:07;17.10;;;7.97;;
609;SDS011;292;48.800;9.216;2022-11-09T05:35:34;14.33;;;7.13;;
609;SDS011;292;48.800;9.216;2022-11-09T05:38:01;26.40;;;8.77;;
609;SDS011;292;48.800;9.216;2022-11-09T05:40:28;22.93;;;8.43;;
609;SDS011;292;48.800;9.216;2022-11-09T05:42:56;24.33;;;8.60;;
609;SDS011;292;48.800;9.216;2022-11-09T05:45:24;17.77;;;8.60;;
609;SDS011;292;48.800;9.216;2022-11-09T05:47:51;19.40;;;8.07;;
609;SDS011;292;48.800;9.216;2022-11-09T05:50:18;16.20;;;7.70;;
609;SDS011;292;48.800;9.216;2022-11-09T05:52:45;21.37;;;7.63;;
609;SDS011;292;48.800;9.216;2022-11-09T05:55:12;13.97;;;7.97;;
609;SDS011;292;48.800;9.216;2022-11-09T05:57:39;17.60;;;7.40;;
609;SDS011;292;48.800;9.216;2022-11-09T06:00:07;18.77;;;7.40;;
609;SDS011;292;48.800;9.216;2022-11-09T06:02:36;16.87;;;7.13;;
609;SDS011;292;48.800;9.216;2022-11-09T06:05:03;18.50;;;7.40;;
609;SDS011;292;48.800;9.216;2022-11-09T06:07:31;14.73;;;6.30;;
609;SDS011;292;48.800;9.216;2022-11-09T06:09:58;12.60;;;6.27;;
609;SDS011;292;48.800;9.216;2022-11-09T06:12:25;15.60;;;6.57;;
609;SDS011;292;48.800;9.216;2022-11-09T06:14:52;14.40;;;7.10;;
609;SDS011;292;48.800;9.216;2022-11-09T06:17:19;12.00;;;6.37;;
609;SDS011;292;48.800;9.216;2022-11-09T06:19:47;12.70;;;5.47;;
609;SDS011;292;48.800;9.216;2022-11-09T06:22:14;9.03;;;4.80;;
609;SDS011;292;48.800;9.216;2022-11-09T06:24:41;15.30;;;5.43;;
609;SDS011;292;48.800;9.216;2022-11-09T06:27:08;13.43;;;5.20;;
609;SDS011;292;48.800;9.216;2022-11-09T06:29:35;12.77;;;5.83;;
609;SDS011;292;48.800;9.216;2022-11-09T06:32:03;13.33;;;5.87;;
609;SDS011;292;48.800;9.216;2022-11-09T06:34:30;11.20;;;4.90;;
609;SDS011;292;48.800;9.216;2022-11-09T06:36:59;11.00;;;5.23;;
609;SDS011;292;48.800;9.216;2022-11-09T06:39:26;9.63;;;4.90;;
609;SDS011;292;48.800;9.216;2022-11-09T06:41:53;11.70;;;5.07;;
609;SDS011;292;48.800;9.216;2022-11-09T06:44:20;13.53;;;6.10;;
609;SDS011;292;48.800;9.216;2022-11-09T06:46:47;14.43;;;6.97;;
609;SDS011;292;48.800;9.216;2022-11-09T06:49:14;19.53;;;7.80;;
609;SDS011;292;48.800;9.216;2022-11-09T06:51:41;15.63;;;7.10;;
609;SDS011;292;48.800;9.216;2022-11-09T06:54:09;20.97;;;7.90;;
609;SDS011;292;48.800;9.216;2022-11-09T06:56:36;24.30;;;8.20;;
609;SDS011;292;48.800;9.216;2022-11-09T06:59:03;13.20;;;6.30;;
609;SDS011;292;48.800;9.216;2022-11-09T07:01:31;21.27;;;7.80;;
609;SDS011;292;48.800;9.216;2022-11-09T07:03:59;17.83;;;6.70;;
609;SDS011;292;48.800;9.216;2022-11-09T07:06:26;14.13;;;6.40;;
609;SDS011;292;48.800;9.216;2022-11-09T07:08:53;16.80;;;6.23;;
609;SDS011;292;48.800;9.216;2022-11-09T07:11:22;16.33;;;7.00;;
609;SDS011;292;48.800;9.216;2022-11-09T07:13:49;18.63;;;6.50;;
609;SDS011;292;48.800;9.216;2022-11-09T07:16:16;15.30;;;6.20;;
609;SDS011;292;48.800;9.216;2022-11-09T07:18:43;17.83;;;6.50;;
609;SDS011;292;48.800;9.216;2022-11-09T07:21:11;17.93;;;7.40;;
609;SDS011;292;48.800;9.216;2022-11-09T07:23:38;14.97;;;8.30;;
609;SDS011;292;48.800;9.216;2022-11-09T07:26:05;17.00;;;6.80;;
609;SDS011;292;48.800;9.216;2022-11-09T07:28:34;11.87;;;5.90;;
609;SDS011;292;48.800;9.216;2022-11-09T07:31:02;14.83;;;6.77;;
609;SDS011;292;48.800;9.216;2022-11-09T07:33:29;11.23;;;4.73;;
609;SDS011;292;48.800;9.216;2022-11-09T07:35:57;14.40;;;5.87;;
609;SDS011;292;48.800;9.216;2022-11-09T07:38:25;11.90;;;5.60;;
609;SDS011;292;48.800;9.216;2022-11-09T07:40:52;18.57;;;7.63;;
609;SDS011;292;48.800;9.216;2022-11-09T07:43:19;10.90;;;6.10;;
609;SDS011;292;48.800;9.216;2022-11-09T07:45:48;14.90;;;6.40;;
609;SDS011;292;48.800;9.216;2022-11-09T07:48:15;14.67;;;6.20;;
609;SDS011;292;48.800;9.216;2022-11-09T07:50:42;13.70;;;7.20;;
609;SDS011;292;48.800;9.216;2022-11-09T07:53:09;10.90;;;6.40;;
609;SDS011;292;48.800;9.216;2022-11-09T07:55:38;14.00;;;6.60;;
609;SDS011;292;48.800;9.216;2022-11-09T07:58:06;13.53;;;5.60;;
609;SDS011;292;48.800;9.216;2022-11-09T08:00:36;15.70;;;6.47;;
609;SDS011;292;48.800;9.216;2022-11-09T08:03:06;11.80;;;6.03;;
609;SDS011;292;48.800;9.216;2022-11-09T08:05:34;13.07;;;6.37;;
609;SDS011;292;48.800;9.216;2022-11-09T08:08:03;18.63;;;7.20;;
609;SDS011;292;48.800;9.216;2022-11-09T08:10:31;15.43;;;6.73;;
609;SDS011;292;48.800;9.216;2022-11-09T08:13:00;20.13;;;6.87;;
609;SDS011;292;48.800;9.216;2022-11-09T08:15:27;16.40;;;6.93;;
609;SDS011;292;48.800;9.216;2022-11-09T08:17:57;12.83;;;6.70;;
609;SDS011;292;48.800;9.216;2022-11-09T08:20:27;17.17;;;7.50;;
609;SDS011;292;48.800;9.216;2022-11-09T08:22:54;16.10;;;7.00;;
609;SDS011;292;48.800;9.216;2022-11-09T08:25:21;19.27;;;7.47;;
609;SDS011;292;48.800;9.216;2022-11-09T08:27:48;17.90;;;6.80;;
609;SDS011;292;48.800;9.216;2022-11-09T08:30:16;21.37;;;6.30;;
609;SDS011;292;48.800;9.216;2022-11-09T08:32:45;17.50;;;6.40;;
609;SDS011;292;48.800;9.216;2022-11-09T08:35:14;15.27;;;5.90;;
609;SDS011;292;48.800;9.216;2022-11-09T08:37:44;14.43;;;6.20;;
609;SDS011;292;48.800;9.216;2022-11-09T08:40:13;19.90;;;6.30;;
609;SDS011;292;48.800;9.216;2022-11-09T08:42:41;13.43;;;6.20;;
609;SDS011;292;48.800;9.216;2022-11-09T08:45:09;17.77;;;6.87;;
609;SDS011;292;48.800;9.216;2022-11-09T08:47:36;15.13;;;5.50;;
609;SDS011;292;48.800;9.216;2022-11-09T08:50:04;18.77;;;6.50;;
609;SDS011;292;48.800;9.216;2022-11-09T08:52:33;13.17;;;5.13;;
609;SDS011;292;48.800;9.216;2022-11-09T08:55:01;15.07;;;6.40;;
609;SDS011;292;48.800;9.216;2022-11-09T08:57:29;9.67;;;5.13;;
609;SDS011;292;48.800;9.216;2022-11-09T08:59:56;11.93;;;5.27;;
609;SDS011;292;48.800;9.216;2022-11-09T09:02:23;13.67;;;5.60;;
609;SDS011;292;48.800;9.216;2022-11-09T09:04:50;11.00;;;4.77;;
609;SDS011;292;48.800;9.216;2022-11-09T09:07:17;11.50;;;4.60;;
609;SDS011;292;48.800;9.216;2022-11-09T09:09:44;22.20;;;5.50;;
609;SDS011;292;48.800;9.216;2022-11-09T09:12:13;11.23;;;4.83;;
609;SDS011;292;48.800;9.216;2022-11-09T09:14:40;11.83;;;5.40;;
609;SDS011;292;48.800;9.216;2022-11-09T09:17:07;8.07;;;4.70;;
609;SDS011;292;48.800;9.216;2022-11-09T09:19:34;12.50;;;4.90;;
609;SDS011;292;48.800;9.216;2022-11-09T09:22:00;10.10;;;5.07;;
609;SDS011;292;48.800;9.216;2022-11-09T09:24:28;13.07;;;5.77;;
609;SDS011;292;48.800;9.216;2022-11-09T09:26:54;12.47;;;5.50;;
609;SDS011;292;48.800;9.216;2022-11-09T09:29:23;15.13;;;6.37;;
609;SDS011;292;48.800;9.216;2022-11-09T09:31:50;20.77;;;5.93;;
609;SDS011;292;48.800;9.216;2022-11-09T09:34:17;9.77;;;5.20;;
609;SDS011;292;48.800;9.216;2022-11-09T09:36:44;12.47;;;5.43;;
609;SDS011;292;48.800;9.216;2022-11-09T09:39:11;14.67;;;4.90;;
609;SDS011;292;48.800;9.216;2022-11-09T09:41:39;9.07;;;4.13;;
609;SDS011;292;48.800;9.216;2022-11-09T09:44:17;14.67;;;4.87;;
609;SDS011;292;48.800;9.216;2022-11-09T09:46:52;6.40;;;3.23;;
609;SDS011;292;48.800;9.216;2022-11-09T09:49:25;9.23;;;4.20;;
609;SDS011;292;48.800;9.216;2022-11-09T09:51:56;12.93;;;4.03;;
609;SDS011;292;48.800;9.216;2022-11-09T09:54:28;10.57;;;4.53;;
609;SDS011;292;48.800;9.216;2022-11-09T09:56:59;10.20;;;5.10;;
609;SDS011;292;48.800;9.216;2022-11-09T09:59:30;11.03;;;4.37;;
609;SDS011;292;48.800;9.216;2022-11-09T10:02:05;8.20;;;4.10;;
609;SDS011;292;48.800;9.216;2022-11-09T10:04:39;8.03;;;4.40;;
609;SDS011;292;48.800;9.216;2022-11-09T10:07:09;17.10;;;4.80;;
609;SDS011;292;48.800;9.216;2022-11-09T10:09:46;11.63;;;4.33;;
609;SDS011;292;48.800;9.216;2022-11-09T10:12:36;8.10;;;3.63;;
609;SDS011;292;48.800;9.216;2022-11-09T10:15:14;9.80;;;3.43;;
609;SDS011;292;48.800;9.216;2022-11-09T10:18:00;7.10;;;3.80;;
609;SDS011;292;48.800;9.216;2022-11-09T10:20:42;8.63;;;3.90;;
609;SDS011;292;48.800;9.216;2022-11-09T10:23:31;15.50;;;3.73;;
609;SDS011;292;48.800;9.216;2022-11-09T10:26:10;7.87;;;3.00;;
609;SDS011;292;48.800;9.216;2022-11-09T10:28:43;9.70;;;3.83;;
609;SDS011;292;48.800;9.216;2022-11-09T10:31:14;5.97;;;2.87;;
609;SDS011;292;48.800;9.216;2022-11-09T10:33:45;13.83;;;3.77;;
609;SDS011;292;48.800;9.216;2022-11-09T10:36:19;5.20;;;2.80;;
609;SDS011;292;48.800;9.216;2022-11-09T10:38:50;7.10;;;3.10;;
609;SDS011;292;48.800;9.216;2022-11-09T10:41:23;6.97;;;3.40;;
609;SDS011;292;48.800;9.216;2022-11-09T10:43:54;9.27;;;2.80;;
609;SDS011;292;48.800;9.216;2022-11-09T10:46:21;7.90;;;3.10;;
609;SDS011;292;48.800;9.216;2022-11-09T10:48:50;5.10;;;2.70;;
609;SDS011;292;48.800;9.216;2022-11-09T10:51:30;5.00;;;2.73;;
609;SDS011;292;48.800;9.216;2022-11-09T10:54:12;5.73;;;2.77;;
609;SDS011;292;48.800;9.216;2022-11-09T10:56:44;6.50;;;2.70;;
609;SDS011;292;48.800;9.216;2022-11-09T11:05:23;6.90;;;2.97;;
609;SDS011;292;48.800;9.216;2022-11-09T11:07:54;6.30;;;2.60;;
609;SDS011;292;48.800;9.216;2022-11-09T11:10:22;5.33;;;2.17;;
609;SDS011;292;48.800;9.216;2022-11-09T11:13:14;3.17;;;2.17;;
609;SDS011;292;48.800;9.216;2022-11-09T11:15:48;3.53;;;2.30;;
609;SDS011;292;48.800;9.216;2022-11-09T11:18:21;3.90;;;2.27;;
609;SDS011;292;48.800;9.216;2022-11-09T11:21:10;3.77;;;2.07;;
609;SDS011;292;48.800;9.216;2022-11-09T11:23:40;7.10;;;3.10;;
609;SDS011;292;48.800;9.216;2022-11-09T11:28:58;5.07;;;2.40;;
609;SDS011;292;48.800;9.216;2022-11-09T11:31:27;7.30;;;2.70;;
609;SDS011;292;48.800;9.216;2022-11-09T11:33:54;5.47;;;2.60;;
609;SDS011;292;48.800;9.216;2022-11-09T11:36:25;4.70;;;2.60;;
609;SDS011;292;48.800;9.216;2022-11-09T11:39:02;6.07;;;2.30;;
609;SDS011;292;48.800;9.216;2022-11-09T11:41:50;8.30;;;3.63;;
609;SDS011;292;48.800;9.216;2022-11-09T11:44:31;6.30;;;2.07;;
609;SDS011;292;48.800;9.216;2022-11-09T11:47:24;6.97;;;2.50;;
609;SDS011;292;48.800;9.216;2022-11-09T11:50:10;5.47;;;2.23;;
609;SDS011;292;48.800;9.216;2022-11-09T11:52:58;4.63;;;2.33;;
609;SDS011;292;48.800;9.216;2022-11-09T11:58:38;4.83;;;2.40;;
609;SDS011;292;48.800;9.216;2022-11-09T12:01:23;9.67;;;2.77;;
609;SDS011;292;48.800;9.216;2022-11-09T12:04:02;3.47;;;2.30;;
609;SDS011;292;48.800;9.216;2022-11-09T12:06:42;5.20;;;2.60;;
609;SDS011;292;48.800;9.216;2022-11-09T12:09:51;5.80;;;2.97;;
609;SDS011;292;48.800;9.216;2022-11-09T12:12:28;4.93;;;2.50;;
609;SDS011;292;48.800;9.216;2022-11-09T12:15:09;4.53;;;2.50;;
609;SDS011;292;48.800;9.216;2022-11-09T12:17:50;5.90;;;2.60;;
609;SDS011;292;48.800;9.216;2022-11-09T12:20:27;5.93;;;2.50;;
609;SDS011;292;48.800;9.216;2022-11-09T12:23:22;7.23;;;2.40;;
609;SDS011;292;48.800;9.216;2022-11-09T12:26:02;5.17;;;2.40;;
609;SDS011;292;48.800;9.216;2022-11-09T12:28:43;4.00;;;2.00;;
609;SDS011;292;48.800;9.216;2022-11-09T12:31:34;5.27;;;1.87;;
609;SDS011;292;48.800;9.216;2022-11-09T12:34:12;3.60;;;1.70;;
609;SDS011;292;48.800;9.216;2022-11-09T12:36:44;8.70;;;2.87;;
609;SDS011;292;48.800;9.216;2022-11-09T12:39:25;3.60;;;1.90;;
609;SDS011;292;48.800;9.216;2022-11-09T12:41:59;4.90;;;2.40;;
609;SDS011;292;48.800;9.216;2022-11-09T12:44:31;8.03;;;2.00;;
609;SDS011;292;48.800;9.216;2022-11-09T12:47:02;7.10;;;2.20;;
609;SDS011;292;48.800;9.216;2022-11-09T12:49:34;4.07;;;2.20;;
609;SDS011;292;48.800;9.216;2022-11-09T12:52:02;4.17;;;1.80;;
609;SDS011;292;48.800;9.216;2022-11-09T12:54:31;6.10;;;2.00;;
609;SDS011;292;48.800;9.216;2022-11-09T12:57:01;10.90;;;2.27;;
609;SDS011;292;48.800;9.216;2022-11-09T12:59:33;8.87;;;2.80;;
609;SDS011;292;48.800;9.216;2022-11-09T13:02:02;7.33;;;2.90;;
609;SDS011;292;48.800;9.216;2022-11-09T13:04:30;13.53;;;3.83;;
609;SDS011;292;48.800;9.216;2022-11-09T13:07:15;9.20;;;2.70;;
609;SDS011;292;48.800;9.216;2022-11-09T13:09:51;5.17;;;1.70;;
609;SDS011;292;48.800;9.216;2022-11-09T13:12:31;3.60;;;2.10;;
609;SDS011;292;48.800;9.216;2022-11-09T13:15:19;3.00;;;1.80;;
609;SDS011;292;48.800;9.216;2022-11-09T13:17:58;7.30;;;1.60;;
609;SDS011;292;48.800;9.216;2022-11-09T13:20:39;4.77;;;1.70;;
609;SDS011;292;48.800;9.216;2022-11-09T13:25:55;5.60;;;2.27;;
609;SDS011;292;48.800;9.216;2022-11-09T13:28:43;12.33;;;1.67;;
609;SDS011;292;48.800;9.216;2022-11-09T13:31:57;2.27;;;1.40;;
609;SDS011;292;48.800;9.216;2022-11-09T13:34:42;2.83;;;1.60;;
609;SDS011;292;48.800;9.216;2022-11-09T13:43:15;5.23;;;2.30;;
609;SDS011;292;48.800;9.216;2022-11-09T13:45:50;16.70;;;2.70;;
609;SDS011;292;48.800;9.216;2022-11-09T13:48:30;19.37;;;2.93;;
609;SDS011;292;48.800;9.216;2022-11-09T13:51:00;4.30;;;2.00;;
609;SDS011;292;48.800;9.216;2022-11-09T13:53:30;65.63;;;29.67;;
609;SDS011;292;48.800;9.216;2022-11-09T13:56:21;18.77;;;8.03;;
609;SDS011;292;48.800;9.216;2022-11-09T13:58:55;10.43;;;3.57;;
609;SDS011;292;48.800;9.216;2022-11-09T14:01:28;3.33;;;2.50;;
609;SDS011;292;48.800;9.216;2022-11-09T14:03:56;10.80;;;2.47;;
609;SDS011;292;48.800;9.216;2022-11-09T14:06:26;5.23;;;1.97;;
609;SDS011;292;48.800;9.216;2022-11-09T14:08:53;7.13;;;2.67;;
609;SDS011;292;48.800;9.216;2022-11-09T14:11:28;3.50;;;2.10;;
609;SDS011;292;48.800;9.216;2022-11-09T14:14:20;3.63;;;1.93;;
609;SDS011;292;48.800;9.216;2022-11-09T14:17:12;4.13;;;2.10;;
609;SDS011;292;48.800;9.216;2022-11-09T14:19:49;5.90;;;1.63;;
609;SDS011;292;48.800;9.216;2022-11-09T14:22:22;7.40;;;2.13;;
609;SDS011;292;48.800;9.216;2022-11-09T14:24:49;8.00;;;1.97;;
609;SDS011;292;48.800;9.216;2022-11-09T14:27:17;3.30;;;1.70;;
609;SDS011;292;48.800;9.216;2022-11-09T14:29:47;3.07;;;1.93;;
609;SDS011;292;48.800;9.216;2022-11-09T14:32:37;3.80;;;2.00;;
609;SDS011;292;48.800;9.216;2022-11-09T14:37:54;9.70;;;2.50;;
609;SDS011;292;48.800;9.216;2022-11-09T14:40:23;4.17;;;2.03;;
609;SDS011;292;48.800;9.216;2022-11-09T14:42:53;5.20;;;2.07;;
609;SDS011;292;48.800;9.216;2022-11-09T14:45:23;2.70;;;1.60;;
609;SDS011;292;48.800;9.216;2022-11-09T14:47:53;3.13;;;1.90;;
609;SDS011;292;48.800;9.216;2022-11-09T14:50:23;3.63;;;2.00;;
609;SDS011;292;48.800;9.216;2022-11-09T14:52:52;4.23;;;1.90;;
609;SDS011;292;48.800;9.216;2022-11-09T14:55:21;4.90;;;2.23;;
609;SDS011;292;48.800;9.216;2022-11-09T14:57:50;5.50;;;2.20;;
609;SDS011;292;48.800;9.216;2022-11-09T15:00:21;1.47;;;1.40;;
609;SDS011;292;48.800;9.216;2022-11-09T15:02:53;8.00;;;2.00;;
609;SDS011;292;48.800;9.216;2022-11-09T15:05:28;3.87;;;2.30;;
609;SDS011;292;48.800;9.216;2022-11-09T15:07:58;4.13;;;2.27;;
609;SDS011;292;48.800;9.216;2022-11-09T15:10:28;3.13;;;1.97;;
609;SDS011;292;48.800;9.216;2022-11-09T15:12:58;5.80;;;2.50;;
609;SDS011;292;48.800;9.216;2022-11-09T15:15:27;4.27;;;2.30;;
609;SDS011;292;48.800;9.216;2022-11-09T15:17:56;6.23;;;2.47;;
609;SDS011;292;48.800;9.216;2022-11-09T15:20:26;9.90;;;2.80;;
609;SDS011;292;48.800;9.216;2022-11-09T15:22:57;6.93;;;2.30;;
609;SDS011;292;48.800;9.216;2022-11-09T15:25:27;5.00;;;2.73;;
609;SDS011;292;48.800;9.216;2022-11-09T15:30:45;8.43;;;2.83;;
609;SDS011;292;48.800;9.216;2022-11-09T15:33:23;3.87;;;2.07;;
609;SDS011;292;48.800;9.216;2022-11-09T15:35:53;4.93;;;2.80;;
609;SDS011;292;48.800;9.216;2022-11-09T15:38:29;6.03;;;2.53;;
609;SDS011;292;48.800;9.216;2022-11-09T15:41:02;6.10;;;2.60;;
609;SDS011;292;48.800;9.216;2022-11-09T15:43:34;6.73;;;2.60;;
609;SDS011;292;48.800;9.216;2022-11-09T15:46:02;8.00;;;3.70;;
609;SDS011;292;48.800;9.216;2022-11-09T15:48:31;3.80;;;2.83;;
609;SDS011;292;48.800;9.216;2022-11-09T15:50:58;6.53;;;3.00;;
609;SDS011;292;48.800;9.216;2022-11-09T15:53:26;4.90;;;3.10;;
609;SDS011;292;48.800;9.216;2022-11-09T15:55:53;7.43;;;3.30;;
609;SDS011;292;48.800;9.216;2022-11-09T15:58:20;5.70;;;2.97;;
609;SDS011;292;48.800;9.216;2022-11-09T16:00:47;11.10;;;3.20;;
609;SDS011;292;48.800;9.216;2022-11-09T16:03:14;9.50;;;2.90;;
609;SDS011;292;48.800;9.216;2022-11-09T16:05:43;6.47;;;2.60;;
609;SDS011;292;48.800;9.216;2022-11-09T16:08:10;4.80;;;1.90;;
609;SDS011;292;48.800;9.216;2022-11-09T16:10:38;4.80;;;2.20;;
609;SDS011;292;48.800;9.216;2022-11-09T16:13:06;3.10;;;2.40;;
609;SDS011;292;48.800;9.216;2022-11-09T16:15:33;4.57;;;2.70;;
609;SDS011;292;48.800;9.216;2022-11-09T16:18:02;4.90;;;2.40;;
609;SDS011;292;48.800;9.216;2022-11-09T16:20:30;5.00;;;2.77;;
609;SDS011;292;48.800;9.216;2022-11-09T16:22:58;3.67;;;2.17;;